MMTC

Francisco Sarabia International Airport

Torreón, Mexico
TAF MMTC 211711Z 2118/2218 06010KT P6SM SCT040 TEMPO 2121/2201 06015KT FM220400 09006KT P6SM SKC FM221600 12010KT P6SM SCT220
Issued Valid From Valid To
Jul-21 @ 17:11 UTC
(6 hours ago)
Jul-21 @ 18:00 UTC
(5 hours ago)
Jul-22 @ 18:00 UTC
(in 19 hours)
Jul-21 @ 18:00 to Jul-22 @ 04:00
TAF MMTC 211711Z 2118/2218 06010KT P6SM SCT040
Wind Visibility Clouds
60° at 10 knots Greater than 6 miles
  • Scattered at 4,000' AGL
Temporary Jul-21 @ 21:00 to Jul-22 @ 01:00
TEMPO 2121/2201 06015KT
Wind
60° at 15 knots
From Jul-22 @ 04:00 to Jul-22 @ 16:00
FM220400 09006KT P6SM SKC
Wind Visibility Clouds
90° at 6 knots Greater than 6 miles
  • Clear skies
From Jul-22 @ 16:00 to Jul-22 @ 18:00
FM221600 12010KT P6SM SCT220
Wind Visibility Clouds
120° at 10 knots Greater than 6 miles
  • Scattered at 22,000' AGL
TAF MMTC 211711Z 2118/2218 06010KT P6SM SCT040 TEMPO 2121/2201 06015KT FM220400 09006KT P6SM SKC FM221600 12010KT P6SM SCT220
Issued Jul-21 @ 17:11 UTC
(6 hours ago)
Valid From Jul-21 @ 18:00 UTC
(5 hours ago)
Valid To Jul-22 @ 18:00 UTC
(in 19 hours)
Jul-21 @ 18:00 - Jul-22 @ 04:00
Wind Visibility
60° at 10 knots Greater than 6 miles
Clouds
  • Scattered at 4,000' AGL
Temporary Jul-21 @ 21:00 - Jul-22 @ 01:00
Wind
60° at 15 knots
From Jul-22 @ 04:00 - Jul-22 @ 16:00
Wind Visibility
90° at 6 knots Greater than 6 miles
Clouds
  • Clear skies
From Jul-22 @ 16:00 - Jul-22 @ 18:00
Wind Visibility
120° at 10 knots Greater than 6 miles
Clouds
  • Scattered at 22,000' AGL